sensor_id;sensor_type;location;lat;lon;timestamp;pressure;altitude;pressure_sealevel;temperature;humidity
44351;BME280;62766;62.622;17.912;2023-05-23T00:02:21;101294.15;;;9.66;59.00
44351;BME280;62766;62.622;17.912;2023-05-23T00:04:48;101291.81;;;9.67;59.19
44351;BME280;62766;62.622;17.912;2023-05-23T00:07:17;101287.38;;;9.48;59.21
44351;BME280;62766;62.622;17.912;2023-05-23T00:09:46;101287.93;;;9.55;58.71
44351;BME280;62766;62.622;17.912;2023-05-23T00:12:16;101283.90;;;9.39;58.28
44351;BME280;62766;62.622;17.912;2023-05-23T00:14:45;101280.83;;;9.62;58.20
44351;BME280;62766;62.622;17.912;2023-05-23T00:17:14;101277.91;;;9.47;58.01
44351;BME280;62766;62.622;17.912;2023-05-23T00:19:42;101280.67;;;9.35;57.74
44351;BME280;62766;62.622;17.912;2023-05-23T00:22:11;101280.71;;;9.21;57.87
44351;BME280;62766;62.622;17.912;2023-05-23T00:24:40;101285.88;;;9.35;57.97
44351;BME280;62766;62.622;17.912;2023-05-23T00:27:08;101286.40;;;9.30;57.79
44351;BME280;62766;62.622;17.912;2023-05-23T00:29:36;101284.27;;;9.21;57.54
44351;BME280;62766;62.622;17.912;2023-05-23T00:32:05;101276.93;;;9.15;57.95
44351;BME280;62766;62.622;17.912;2023-05-23T00:34:33;101269.15;;;9.12;58.35
44351;BME280;62766;62.622;17.912;2023-05-23T00:37:02;101262.25;;;9.03;58.09
44351;BME280;62766;62.622;17.912;2023-05-23T00:39:30;101259.78;;;9.11;57.90
44351;BME280;62766;62.622;17.912;2023-05-23T00:42:03;101255.19;;;9.33;57.91
44351;BME280;62766;62.622;17.912;2023-05-23T00:44:33;101251.63;;;9.24;57.38
44351;BME280;62766;62.622;17.912;2023-05-23T00:47:02;101252.73;;;9.32;56.86
44351;BME280;62766;62.622;17.912;2023-05-23T00:49:30;101248.13;;;9.07;57.16
44351;BME280;62766;62.622;17.912;2023-05-23T00:51:58;101250.30;;;9.08;57.52
44351;BME280;62766;62.622;17.912;2023-05-23T00:54:28;101248.77;;;9.13;57.56
44351;BME280;62766;62.622;17.912;2023-05-23T00:56:57;101242.72;;;9.25;57.66
44351;BME280;62766;62.622;17.912;2023-05-23T00:59:27;101230.92;;;9.22;57.92
44351;BME280;62766;62.622;17.912;2023-05-23T01:01:56;101229.24;;;9.24;57.89
44351;BME280;62766;62.622;17.912;2023-05-23T01:04:25;101227.73;;;9.17;57.70
44351;BME280;62766;62.622;17.912;2023-05-23T01:06:54;101224.36;;;9.29;57.73
44351;BME280;62766;62.622;17.912;2023-05-23T01:09:24;101219.43;;;9.42;58.07
44351;BME280;62766;62.622;17.912;2023-05-23T01:12:07;101215.81;;;9.49;57.91
44351;BME280;62766;62.622;17.912;2023-05-23T01:14:46;101212.85;;;9.47;57.49
44351;BME280;62766;62.622;17.912;2023-05-23T01:17:20;101211.40;;;9.30;57.12
44351;BME280;62766;62.622;17.912;2023-05-23T01:19:58;101209.61;;;9.27;56.77
44351;BME280;62766;62.622;17.912;2023-05-23T01:22:37;101209.33;;;9.32;56.83
44351;BME280;62766;62.622;17.912;2023-05-23T01:25:19;101205.78;;;9.35;57.98
44351;BME280;62766;62.622;17.912;2023-05-23T01:27:52;101199.73;;;9.29;58.03
44351;BME280;62766;62.622;17.912;2023-05-23T01:30:23;101199.92;;;9.21;58.03
44351;BME280;62766;62.622;17.912;2023-05-23T01:32:53;101203.60;;;9.17;57.90
44351;BME280;62766;62.622;17.912;2023-05-23T01:35:25;101203.39;;;9.31;57.67
44351;BME280;62766;62.622;17.912;2023-05-23T01:37:54;101200.79;;;9.35;57.60
44351;BME280;62766;62.622;17.912;2023-05-23T01:40:23;101200.42;;;9.31;57.41
44351;BME280;62766;62.622;17.912;2023-05-23T01:42:54;101197.43;;;9.28;57.04
44351;BME280;62766;62.622;17.912;2023-05-23T01:45:24;101195.94;;;9.40;56.74
44351;BME280;62766;62.622;17.912;2023-05-23T01:47:55;101195.38;;;9.38;56.78
44351;BME280;62766;62.622;17.912;2023-05-23T01:50:25;101196.54;;;9.43;56.88
44351;BME280;62766;62.622;17.912;2023-05-23T01:52:53;101194.75;;;9.35;57.04
44351;BME280;62766;62.622;17.912;2023-05-23T01:55:22;101191.77;;;9.33;57.34
44351;BME280;62766;62.622;17.912;2023-05-23T01:57:54;101186.48;;;9.32;57.61
44351;BME280;62766;62.622;17.912;2023-05-23T02:00:23;101181.79;;;9.32;57.95
44351;BME280;62766;62.622;17.912;2023-05-23T02:02:53;101176.98;;;9.15;58.43
44351;BME280;62766;62.622;17.912;2023-05-23T02:05:22;101173.06;;;9.12;59.00
44351;BME280;62766;62.622;17.912;2023-05-23T02:07:50;101166.99;;;9.12;59.09
44351;BME280;62766;62.622;17.912;2023-05-23T02:10:19;101160.98;;;9.15;59.00
44351;BME280;62766;62.622;17.912;2023-05-23T02:12:47;101158.23;;;9.21;58.78
44351;BME280;62766;62.622;17.912;2023-05-23T02:15:15;101153.69;;;9.26;58.72
44351;BME280;62766;62.622;17.912;2023-05-23T02:17:44;101153.10;;;9.48;58.86
44351;BME280;62766;62.622;17.912;2023-05-23T02:20:13;101150.49;;;9.53;58.55
44351;BME280;62766;62.622;17.912;2023-05-23T02:22:42;101147.55;;;9.57;58.38
44351;BME280;62766;62.622;17.912;2023-05-23T02:25:11;101140.31;;;9.60;58.46
44351;BME280;62766;62.622;17.912;2023-05-23T02:27:39;101137.92;;;9.79;58.41
44351;BME280;62766;62.622;17.912;2023-05-23T02:30:08;101141.21;;;9.68;58.32
44351;BME280;62766;62.622;17.912;2023-05-23T02:32:37;101138.82;;;9.78;58.24
44351;BME280;62766;62.622;17.912;2023-05-23T02:35:07;101136.15;;;9.91;58.06
44351;BME280;62766;62.622;17.912;2023-05-23T02:37:35;101136.59;;;9.95;57.84
44351;BME280;62766;62.622;17.912;2023-05-23T02:40:05;101133.19;;;10.01;57.93
44351;BME280;62766;62.622;17.912;2023-05-23T02:42:34;101131.29;;;10.13;58.23
44351;BME280;62766;62.622;17.912;2023-05-23T02:45:03;101130.45;;;10.23;58.08
44351;BME280;62766;62.622;17.912;2023-05-23T02:47:31;101130.33;;;10.04;57.88
44351;BME280;62766;62.622;17.912;2023-05-23T02:50:00;101126.75;;;10.19;57.96
44351;BME280;62766;62.622;17.912;2023-05-23T02:52:29;101121.05;;;10.37;57.73
44351;BME280;62766;62.622;17.912;2023-05-23T02:54:59;101117.46;;;10.50;57.48
44351;BME280;62766;62.622;17.912;2023-05-23T02:57:27;101114.43;;;10.58;57.66
44351;BME280;62766;62.622;17.912;2023-05-23T02:59:55;101114.24;;;10.57;57.30
44351;BME280;62766;62.622;17.912;2023-05-23T03:02:24;101112.43;;;10.72;57.16
44351;BME280;62766;62.622;17.912;2023-05-23T03:04:52;101109.99;;;10.92;56.86
44351;BME280;62766;62.622;17.912;2023-05-23T03:07:21;101106.40;;;10.93;56.64
44351;BME280;62766;62.622;17.912;2023-05-23T03:09:49;101106.48;;;11.01;56.64
44351;BME280;62766;62.622;17.912;2023-05-23T03:12:18;101108.39;;;11.07;56.85
44351;BME280;62766;62.622;17.912;2023-05-23T03:14:47;101106.68;;;11.04;56.66
44351;BME280;62766;62.622;17.912;2023-05-23T03:17:15;101104.46;;;11.13;56.43
44351;BME280;62766;62.622;17.912;2023-05-23T03:19:44;101099.89;;;11.37;55.83
44351;BME280;62766;62.622;17.912;2023-05-23T03:22:13;101100.29;;;11.30;55.73
44351;BME280;62766;62.622;17.912;2023-05-23T03:24:41;101102.48;;;11.42;55.30
44351;BME280;62766;62.622;17.912;2023-05-23T03:27:09;101099.83;;;11.46;54.74
44351;BME280;62766;62.622;17.912;2023-05-23T03:29:38;101094.85;;;11.65;54.46
44351;BME280;62766;62.622;17.912;2023-05-23T03:32:07;101092.90;;;11.83;54.48
44351;BME280;62766;62.622;17.912;2023-05-23T03:34:35;101095.31;;;11.95;54.27
44351;BME280;62766;62.622;17.912;2023-05-23T03:37:04;101094.71;;;11.86;54.65
44351;BME280;62766;62.622;17.912;2023-05-23T03:39:32;101090.96;;;11.99;54.74
44351;BME280;62766;62.622;17.912;2023-05-23T03:42:01;101083.66;;;11.98;54.75
44351;BME280;62766;62.622;17.912;2023-05-23T03:44:29;101081.12;;;11.95;54.48
44351;BME280;62766;62.622;17.912;2023-05-23T03:46:57;101080.24;;;12.21;54.26
44351;BME280;62766;62.622;17.912;2023-05-23T03:49:26;101080.55;;;12.03;54.12
44351;BME280;62766;62.622;17.912;2023-05-23T03:51:54;101080.05;;;12.19;54.25
44351;BME280;62766;62.622;17.912;2023-05-23T03:54:22;101072.89;;;12.26;54.31
44351;BME280;62766;62.622;17.912;2023-05-23T03:56:51;101070.77;;;12.38;54.09
44351;BME280;62766;62.622;17.912;2023-05-23T03:59:19;101069.30;;;12.41;53.97
44351;BME280;62766;62.622;17.912;2023-05-23T04:03:27;101063.82;;;12.55;54.76
44351;BME280;62766;62.622;17.912;2023-05-23T04:05:55;101059.75;;;12.54;54.53
44351;BME280;62766;62.622;17.912;2023-05-23T04:08:23;101057.61;;;12.51;54.57
44351;BME280;62766;62.622;17.912;2023-05-23T04:10:52;101053.82;;;12.60;54.52
44351;BME280;62766;62.622;17.912;2023-05-23T04:13:21;101052.94;;;12.54;54.16
44351;BME280;62766;62.622;17.912;2023-05-23T04:15:50;101049.67;;;12.67;54.39
44351;BME280;62766;62.622;17.912;2023-05-23T04:18:19;101047.41;;;12.79;54.26
44351;BME280;62766;62.622;17.912;2023-05-23T04:20:48;101044.01;;;12.83;54.30
44351;BME280;62766;62.622;17.912;2023-05-23T04:23:16;101041.89;;;12.87;54.53
44351;BME280;62766;62.622;17.912;2023-05-23T04:25:45;101038.18;;;12.97;53.93
44351;BME280;62766;62.622;17.912;2023-05-23T04:28:13;101032.62;;;12.94;53.70
44351;BME280;62766;62.622;17.912;2023-05-23T04:30:42;101028.59;;;12.98;53.71
44351;BME280;62766;62.622;17.912;2023-05-23T04:33:10;101021.34;;;13.19;53.39
44351;BME280;62766;62.622;17.912;2023-05-23T04:35:40;101019.04;;;13.33;53.16
44351;BME280;62766;62.622;17.912;2023-05-23T04:38:08;101011.84;;;13.47;52.55
44351;BME280;62766;62.622;17.912;2023-05-23T04:40:37;101007.95;;;13.47;52.80
44351;BME280;62766;62.622;17.912;2023-05-23T04:43:04;101006.46;;;13.63;51.68
44351;BME280;62766;62.622;17.912;2023-05-23T04:45:33;101005.42;;;13.59;51.45
44351;BME280;62766;62.622;17.912;2023-05-23T04:48:01;101005.01;;;13.72;51.36
44351;BME280;62766;62.622;17.912;2023-05-23T04:50:30;101007.37;;;13.74;50.87
44351;BME280;62766;62.622;17.912;2023-05-23T04:52:58;101004.93;;;14.04;50.55
44351;BME280;62766;62.622;17.912;2023-05-23T04:55:27;101003.24;;;13.86;50.36
44351;BME280;62766;62.622;17.912;2023-05-23T04:57:54;100999.85;;;14.00;49.61
44351;BME280;62766;62.622;17.912;2023-05-23T05:00:23;100999.10;;;14.11;49.71
44351;BME280;62766;62.622;17.912;2023-05-23T05:02:51;100999.72;;;14.21;49.74
44351;BME280;62766;62.622;17.912;2023-05-23T05:05:20;100998.55;;;14.35;49.45
44351;BME280;62766;62.622;17.912;2023-05-23T05:07:50;100997.76;;;14.50;49.11
44351;BME280;62766;62.622;17.912;2023-05-23T05:10:19;100998.13;;;14.53;48.78
44351;BME280;62766;62.622;17.912;2023-05-23T05:12:47;100998.95;;;14.71;48.44
44351;BME280;62766;62.622;17.912;2023-05-23T05:15:16;100995.67;;;14.69;47.46
44351;BME280;62766;62.622;17.912;2023-05-23T05:17:45;100996.84;;;14.69;47.20
44351;BME280;62766;62.622;17.912;2023-05-23T05:20:14;100994.93;;;14.82;46.95
44351;BME280;62766;62.622;17.912;2023-05-23T05:22:42;100995.62;;;14.82;46.61
44351;BME280;62766;62.622;17.912;2023-05-23T05:25:10;100996.09;;;15.13;46.80
44351;BME280;62766;62.622;17.912;2023-05-23T05:27:39;100995.61;;;14.98;46.62
44351;BME280;62766;62.622;17.912;2023-05-23T05:30:08;100995.74;;;15.21;46.69
44351;BME280;62766;62.622;17.912;2023-05-23T05:32:36;100992.51;;;15.29;45.69
44351;BME280;62766;62.622;17.912;2023-05-23T05:35:06;100989.29;;;15.48;46.36
44351;BME280;62766;62.622;17.912;2023-05-23T05:37:35;100987.29;;;15.50;46.05
44351;BME280;62766;62.622;17.912;2023-05-23T05:40:04;100987.41;;;15.57;46.39
44351;BME280;62766;62.622;17.912;2023-05-23T05:42:33;100985.04;;;15.68;46.27
44351;BME280;62766;62.622;17.912;2023-05-23T05:45:02;100985.29;;;15.82;44.99
44351;BME280;62766;62.622;17.912;2023-05-23T05:47:31;100985.49;;;15.73;45.07
44351;BME280;62766;62.622;17.912;2023-05-23T05:49:59;100981.77;;;15.74;44.91
44351;BME280;62766;62.622;17.912;2023-05-23T05:52:28;100984.35;;;15.91;44.69
44351;BME280;62766;62.622;17.912;2023-05-23T05:54:56;100980.54;;;16.00;45.19
44351;BME280;62766;62.622;17.912;2023-05-23T05:57:24;100982.33;;;16.08;45.43
44351;BME280;62766;62.622;17.912;2023-05-23T05:59:52;100979.82;;;16.11;45.34
44351;BME280;62766;62.622;17.912;2023-05-23T06:02:21;100976.61;;;16.19;44.46
44351;BME280;62766;62.622;17.912;2023-05-23T06:04:50;100969.76;;;16.22;43.18
44351;BME280;62766;62.622;17.912;2023-05-23T06:07:19;100967.69;;;16.21;43.50
44351;BME280;62766;62.622;17.912;2023-05-23T06:09:47;100965.51;;;16.10;43.36
44351;BME280;62766;62.622;17.912;2023-05-23T06:12:15;100961.12;;;16.22;44.41
44351;BME280;62766;62.622;17.912;2023-05-23T06:14:44;100954.58;;;16.30;43.13
44351;BME280;62766;62.622;17.912;2023-05-23T06:17:12;100948.56;;;16.37;43.25
44351;BME280;62766;62.622;17.912;2023-05-23T06:19:40;100948.20;;;16.34;43.68
44351;BME280;62766;62.622;17.912;2023-05-23T06:22:09;100946.32;;;16.34;43.21
44351;BME280;62766;62.622;17.912;2023-05-23T06:24:37;100943.21;;;16.35;42.88
44351;BME280;62766;62.622;17.912;2023-05-23T06:27:05;100939.44;;;16.41;43.15
44351;BME280;62766;62.622;17.912;2023-05-23T06:29:33;100945.83;;;16.64;42.46
44351;BME280;62766;62.622;17.912;2023-05-23T06:32:02;100944.13;;;16.61;42.81
44351;BME280;62766;62.622;17.912;2023-05-23T06:34:30;100944.37;;;16.79;42.88
44351;BME280;62766;62.622;17.912;2023-05-23T06:36:58;100940.11;;;16.79;43.12
44351;BME280;62766;62.622;17.912;2023-05-23T06:39:26;100943.78;;;16.80;43.49
44351;BME280;62766;62.622;17.912;2023-05-23T06:41:54;100939.09;;;16.99;42.88
44351;BME280;62766;62.622;17.912;2023-05-23T06:44:23;100944.58;;;17.09;44.05
44351;BME280;62766;62.622;17.912;2023-05-23T06:46:52;100946.58;;;17.00;44.21
44351;BME280;62766;62.622;17.912;2023-05-23T06:49:21;100948.20;;;17.09;44.48
44351;BME280;62766;62.622;17.912;2023-05-23T06:51:50;100948.99;;;17.09;44.47
44351;BME280;62766;62.622;17.912;2023-05-23T06:54:18;100949.58;;;17.25;44.32
44351;BME280;62766;62.622;17.912;2023-05-23T06:56:47;100946.55;;;17.30;42.90
44351;BME280;62766;62.622;17.912;2023-05-23T06:59:15;100946.00;;;17.42;43.38
44351;BME280;62766;62.622;17.912;2023-05-23T07:01:43;100947.06;;;17.43;42.17
44351;BME280;62766;62.622;17.912;2023-05-23T07:04:11;100945.87;;;17.44;42.00
44351;BME280;62766;62.622;17.912;2023-05-23T07:06:39;100942.01;;;17.33;40.84
44351;BME280;62766;62.622;17.912;2023-05-23T07:09:07;100943.09;;;17.34;41.65
44351;BME280;62766;62.622;17.912;2023-05-23T07:11:35;100943.31;;;17.35;41.56
44351;BME280;62766;62.622;17.912;2023-05-23T07:14:04;100945.99;;;17.35;41.36
44351;BME280;62766;62.622;17.912;2023-05-23T07:16:32;100944.55;;;17.22;41.78
44351;BME280;62766;62.622;17.912;2023-05-23T07:19:00;100940.10;;;17.30;42.82
44351;BME280;62766;62.622;17.912;2023-05-23T07:21:28;100938.34;;;17.18;41.67
44351;BME280;62766;62.622;17.912;2023-05-23T07:23:56;100930.78;;;17.18;41.38
44351;BME280;62766;62.622;17.912;2023-05-23T07:26:25;100930.11;;;17.34;41.79
44351;BME280;62766;62.622;17.912;2023-05-23T07:28:53;100927.50;;;17.34;41.85
44351;BME280;62766;62.622;17.912;2023-05-23T07:31:22;100924.95;;;17.41;41.32
44351;BME280;62766;62.622;17.912;2023-05-23T07:33:51;100925.42;;;17.37;40.29
44351;BME280;62766;62.622;17.912;2023-05-23T07:36:19;100923.35;;;17.44;40.29
44351;BME280;62766;62.622;17.912;2023-05-23T07:38:47;100920.35;;;17.47;41.24
44351;BME280;62766;62.622;17.912;2023-05-23T07:41:15;100918.82;;;17.59;41.59
44351;BME280;62766;62.622;17.912;2023-05-23T07:43:44;100918.64;;;17.66;42.27
44351;BME280;62766;62.622;17.912;2023-05-23T07:46:12;100914.82;;;17.69;41.66
44351;BME280;62766;62.622;17.912;2023-05-23T07:48:40;100914.37;;;18.02;41.19
44351;BME280;62766;62.622;17.912;2023-05-23T07:51:08;100909.47;;;18.00;41.67
44351;BME280;62766;62.622;17.912;2023-05-23T07:53:37;100913.18;;;17.93;40.85
44351;BME280;62766;62.622;17.912;2023-05-23T07:56:05;100911.90;;;17.88;40.71
44351;BME280;62766;62.622;17.912;2023-05-23T07:58:35;100916.71;;;17.62;40.53
44351;BME280;62766;62.622;17.912;2023-05-23T08:01:03;100920.06;;;17.61;42.02
44351;BME280;62766;62.622;17.912;2023-05-23T08:03:32;100920.53;;;17.47;40.55
44351;BME280;62766;62.622;17.912;2023-05-23T08:06:00;100924.66;;;17.13;40.29
44351;BME280;62766;62.622;17.912;2023-05-23T08:08:28;100926.73;;;16.85;40.33
44351;BME280;62766;62.622;17.912;2023-05-23T08:10:56;100932.56;;;16.76;40.42
44351;BME280;62766;62.622;17.912;2023-05-23T08:13:24;100933.05;;;16.45;40.33
44351;BME280;62766;62.622;17.912;2023-05-23T08:15:53;100932.65;;;16.43;41.20
44351;BME280;62766;62.622;17.912;2023-05-23T08:18:22;100934.94;;;16.66;40.64
44351;BME280;62766;62.622;17.912;2023-05-23T08:20:51;100935.94;;;16.46;40.60
44351;BME280;62766;62.622;17.912;2023-05-23T08:23:19;100939.93;;;16.24;40.76
44351;BME280;62766;62.622;17.912;2023-05-23T08:25:47;100941.52;;;16.05;40.78
44351;BME280;62766;62.622;17.912;2023-05-23T08:28:15;100942.63;;;15.91;41.49
44351;BME280;62766;62.622;17.912;2023-05-23T08:30:43;100942.37;;;16.11;42.20
44351;BME280;62766;62.622;17.912;2023-05-23T08:33:11;100942.87;;;16.44;41.18
44351;BME280;62766;62.622;17.912;2023-05-23T08:35:40;100944.32;;;16.53;40.35
44351;BME280;62766;62.622;17.912;2023-05-23T08:38:08;100945.95;;;16.53;39.56
44351;BME280;62766;62.622;17.912;2023-05-23T08:40:37;100947.53;;;16.48;40.27
44351;BME280;62766;62.622;17.912;2023-05-23T08:43:06;100945.03;;;16.58;39.49
44351;BME280;62766;62.622;17.912;2023-05-23T08:45:34;100943.16;;;16.66;39.70
44351;BME280;62766;62.622;17.912;2023-05-23T08:48:06;100938.03;;;16.70;39.47
44351;BME280;62766;62.622;17.912;2023-05-23T08:50:36;100939.39;;;16.80;38.87
44351;BME280;62766;62.622;17.912;2023-05-23T08:53:08;100938.89;;;16.84;39.68
44351;BME280;62766;62.622;17.912;2023-05-23T08:55:37;100935.10;;;16.84;39.76
44351;BME280;62766;62.622;17.912;2023-05-23T08:58:07;100935.92;;;17.06;39.28
44351;BME280;62766;62.622;17.912;2023-05-23T09:00:35;100936.74;;;17.29;38.70
44351;BME280;62766;62.622;17.912;2023-05-23T09:03:04;100940.51;;;17.21;37.51
44351;BME280;62766;62.622;17.912;2023-05-23T09:05:32;100940.21;;;17.34;37.98
44351;BME280;62766;62.622;17.912;2023-05-23T09:08:00;100941.99;;;17.30;38.13
44351;BME280;62766;62.622;17.912;2023-05-23T09:10:29;100942.01;;;17.32;37.08
44351;BME280;62766;62.622;17.912;2023-05-23T09:12:57;100943.48;;;17.20;37.16
44351;BME280;62766;62.622;17.912;2023-05-23T09:15:25;100943.00;;;17.20;36.34
44351;BME280;62766;62.622;17.912;2023-05-23T09:17:59;100942.21;;;17.27;36.29
44351;BME280;62766;62.622;17.912;2023-05-23T09:20:29;100943.37;;;17.36;35.50
44351;BME280;62766;62.622;17.912;2023-05-23T09:22:56;100945.54;;;17.22;35.25
44351;BME280;62766;62.622;17.912;2023-05-23T09:25:25;100946.86;;;17.37;35.54
44351;BME280;62766;62.622;17.912;2023-05-23T09:27:53;100944.78;;;17.52;35.17
44351;BME280;62766;62.622;17.912;2023-05-23T09:30:22;100944.48;;;17.56;34.63
44351;BME280;62766;62.622;17.912;2023-05-23T09:32:58;100942.86;;;17.49;35.06
44351;BME280;62766;62.622;17.912;2023-05-23T09:35:28;100941.36;;;17.53;34.38
44351;BME280;62766;62.622;17.912;2023-05-23T09:37:57;100944.41;;;17.62;34.98
44351;BME280;62766;62.622;17.912;2023-05-23T09:40:30;100946.33;;;17.57;35.18
44351;BME280;62766;62.622;17.912;2023-05-23T09:43:02;100948.05;;;17.74;35.47
44351;BME280;62766;62.622;17.912;2023-05-23T09:45:32;100951.88;;;17.71;34.96
44351;BME280;62766;62.622;17.912;2023-05-23T09:48:01;100953.98;;;17.86;34.60
44351;BME280;62766;62.622;17.912;2023-05-23T09:50:30;100955.70;;;17.80;33.66
44351;BME280;62766;62.622;17.912;2023-05-23T09:52:59;100955.69;;;17.72;33.87
44351;BME280;62766;62.622;17.912;2023-05-23T09:55:27;100955.02;;;17.78;33.90
44351;BME280;62766;62.622;17.912;2023-05-23T09:57:57;100952.87;;;17.63;33.69
44351;BME280;62766;62.622;17.912;2023-05-23T10:03:39;100952.40;;;17.58;33.05
44351;BME280;62766;62.622;17.912;2023-05-23T10:06:16;100953.74;;;17.75;33.32
44351;BME280;62766;62.622;17.912;2023-05-23T10:08:51;100953.01;;;17.74;33.22
44351;BME280;62766;62.622;17.912;2023-05-23T10:12:36;100954.83;;;17.64;32.80
44351;BME280;62766;62.622;17.912;2023-05-23T10:15:08;100959.76;;;17.49;34.25
44351;BME280;62766;62.622;17.912;2023-05-23T10:17:46;100960.32;;;17.65;33.89
44351;BME280;62766;62.622;17.912;2023-05-23T10:20:23;100956.42;;;17.54;33.67
44351;BME280;62766;62.622;17.912;2023-05-23T10:22:53;100958.28;;;17.48;34.32
44351;BME280;62766;62.622;17.912;2023-05-23T10:25:23;100959.04;;;17.49;34.99
44351;BME280;62766;62.622;17.912;2023-05-23T10:27:54;100960.01;;;17.48;34.87
44351;BME280;62766;62.622;17.912;2023-05-23T10:30:23;100959.16;;;17.90;34.38
44351;BME280;62766;62.622;17.912;2023-05-23T10:32:53;100956.40;;;17.63;33.94
44351;BME280;62766;62.622;17.912;2023-05-23T10:35:31;100953.94;;;17.58;33.56
44351;BME280;62766;62.622;17.912;2023-05-23T10:38:11;100952.67;;;17.86;34.52
44351;BME280;62766;62.622;17.912;2023-05-23T10:40:51;100950.18;;;17.85;34.51
44351;BME280;62766;62.622;17.912;2023-05-23T10:43:28;100946.43;;;17.90;34.75
44351;BME280;62766;62.622;17.912;2023-05-23T10:45:59;100941.80;;;18.10;35.24
44351;BME280;62766;62.622;17.912;2023-05-23T10:48:41;100940.95;;;18.19;34.30
44351;BME280;62766;62.622;17.912;2023-05-23T10:51:10;100940.76;;;18.29;34.54
44351;BME280;62766;62.622;17.912;2023-05-23T10:53:41;100934.48;;;18.40;34.82
44351;BME280;62766;62.622;17.912;2023-05-23T10:56:18;100931.00;;;18.50;34.46
44351;BME280;62766;62.622;17.912;2023-05-23T10:58:51;100931.09;;;18.71;34.84
44351;BME280;62766;62.622;17.912;2023-05-23T11:01:21;100930.77;;;18.84;34.77
44351;BME280;62766;62.622;17.912;2023-05-23T11:03:52;100929.82;;;18.72;35.12
44351;BME280;62766;62.622;17.912;2023-05-23T11:06:31;100929.43;;;18.73;34.75
44351;BME280;62766;62.622;17.912;2023-05-23T11:09:02;100926.55;;;18.75;34.89
44351;BME280;62766;62.622;17.912;2023-05-23T11:12:03;100928.13;;;18.85;34.90
44351;BME280;62766;62.622;17.912;2023-05-23T11:14:34;100928.30;;;19.00;34.78
44351;BME280;62766;62.622;17.912;2023-05-23T11:17:29;100929.99;;;19.13;36.66
44351;BME280;62766;62.622;17.912;2023-05-23T11:20:02;100928.02;;;19.24;35.90
44351;BME280;62766;62.622;17.912;2023-05-23T11:22:31;100925.24;;;19.26;36.25
44351;BME280;62766;62.622;17.912;2023-05-23T11:25:05;100920.54;;;19.56;36.55
44351;BME280;62766;62.622;17.912;2023-05-23T11:27:35;100912.21;;;19.50;36.62
44351;BME280;62766;62.622;17.912;2023-05-23T11:30:07;100906.79;;;19.46;37.75
44351;BME280;62766;62.622;17.912;2023-05-23T11:32:36;100903.80;;;19.52;37.69
44351;BME280;62766;62.622;17.912;2023-05-23T11:35:06;100905.03;;;19.70;38.09
44351;BME280;62766;62.622;17.912;2023-05-23T11:37:37;100904.56;;;19.89;37.32
44351;BME280;62766;62.622;17.912;2023-05-23T11:40:38;100909.49;;;19.80;36.62
44351;BME280;62766;62.622;17.912;2023-05-23T11:43:10;100907.89;;;19.78;36.97
44351;BME280;62766;62.622;17.912;2023-05-23T11:45:38;100907.65;;;19.88;37.33
44351;BME280;62766;62.622;17.912;2023-05-23T11:48:09;100906.02;;;19.93;37.17
44351;BME280;62766;62.622;17.912;2023-05-23T11:50:47;100908.18;;;19.85;37.69
44351;BME280;62766;62.622;17.912;2023-05-23T11:53:16;100908.81;;;19.78;37.75
44351;BME280;62766;62.622;17.912;2023-05-23T11:55:48;100907.75;;;19.86;37.96
44351;BME280;62766;62.622;17.912;2023-05-23T11:58:16;100900.99;;;20.03;38.22
44351;BME280;62766;62.622;17.912;2023-05-23T12:00:45;100900.58;;;20.22;37.98
44351;BME280;62766;62.622;17.912;2023-05-23T12:03:13;100896.01;;;20.37;37.92
44351;BME280;62766;62.622;17.912;2023-05-23T12:05:42;100897.12;;;20.29;37.60
44351;BME280;62766;62.622;17.912;2023-05-23T12:08:11;100896.43;;;20.60;37.18
44351;BME280;62766;62.622;17.912;2023-05-23T12:10:50;100896.11;;;20.46;37.72
44351;BME280;62766;62.622;17.912;2023-05-23T12:13:22;100896.49;;;20.60;37.82
44351;BME280;62766;62.622;17.912;2023-05-23T12:15:53;100898.73;;;20.72;37.63
44351;BME280;62766;62.622;17.912;2023-05-23T12:18:21;100901.98;;;20.78;37.22
44351;BME280;62766;62.622;17.912;2023-05-23T12:20:49;100907.02;;;20.81;37.15
44351;BME280;62766;62.622;17.912;2023-05-23T12:23:20;100906.12;;;20.84;37.24
44351;BME280;62766;62.622;17.912;2023-05-23T12:25:50;100905.46;;;20.88;37.11
44351;BME280;62766;62.622;17.912;2023-05-23T12:28:19;100903.61;;;20.91;36.78
44351;BME280;62766;62.622;17.912;2023-05-23T12:30:49;100904.47;;;20.93;36.62
44351;BME280;62766;62.622;17.912;2023-05-23T12:33:17;100908.82;;;21.18;37.54
44351;BME280;62766;62.622;17.912;2023-05-23T12:35:47;100910.82;;;21.21;35.85
44351;BME280;62766;62.622;17.912;2023-05-23T12:38:15;100922.17;;;21.36;36.66
44351;BME280;62766;62.622;17.912;2023-05-23T12:40:43;100925.03;;;21.29;35.82
44351;BME280;62766;62.622;17.912;2023-05-23T12:43:14;100927.84;;;21.53;36.31
44351;BME280;62766;62.622;17.912;2023-05-23T12:45:43;100928.29;;;21.54;36.19
44351;BME280;62766;62.622;17.912;2023-05-23T12:48:11;100933.01;;;21.33;36.46
44351;BME280;62766;62.622;17.912;2023-05-23T12:50:39;100938.09;;;21.24;36.84
44351;BME280;62766;62.622;17.912;2023-05-23T12:53:09;100937.49;;;21.14;36.40
44351;BME280;62766;62.622;17.912;2023-05-23T12:55:37;100932.32;;;21.20;36.93
44351;BME280;62766;62.622;17.912;2023-05-23T12:58:05;100930.80;;;20.99;37.05
44351;BME280;62766;62.622;17.912;2023-05-23T13:00:33;100930.12;;;20.97;37.31
44351;BME280;62766;62.622;17.912;2023-05-23T13:03:01;100929.99;;;20.93;37.46